createdAt,value
2016-08-03T00:00:01.598Z,21.09
2016-08-03T00:01:02.335Z,21
2016-08-03T00:02:01.657Z,21.05
2016-08-03T00:03:02.390Z,21.06
2016-08-03T00:04:01.720Z,21.03
2016-08-03T00:05:01.731Z,21.07
2016-08-03T00:06:01.755Z,21.05
2016-08-03T00:07:01.788Z,21
2016-08-03T00:08:02.522Z,21.06
2016-08-03T00:09:01.837Z,21.05
2016-08-03T00:10:01.879Z,21.12
2016-08-03T00:11:03.312Z,21.05
2016-08-03T00:12:01.936Z,21.14
2016-08-03T00:13:01.949Z,21.12
2016-08-03T00:14:01.972Z,21.18
2016-08-03T00:15:02.002Z,21.18
2016-08-03T00:16:02.741Z,21.14
2016-08-03T00:17:02.764Z,21.11
2016-08-03T00:18:02.085Z,21.11
2016-08-03T00:19:02.829Z,21.07
2016-08-03T00:20:03.065Z,21.07
2016-08-03T00:21:02.873Z,21.17
2016-08-03T00:22:02.190Z,21.17
2016-08-03T00:23:02.214Z,21.14
2016-08-03T00:24:02.245Z,21.03
2016-08-03T00:25:02.273Z,21.06
2016-08-03T00:26:02.300Z,21.07
2016-08-03T00:27:02.340Z,21
2016-08-03T00:28:03.094Z,21.15
2016-08-03T00:29:02.381Z,21.05
2016-08-03T00:30:02.411Z,21.15
2016-08-03T00:31:03.144Z,21.11
2016-08-03T00:32:03.170Z,21.18
2016-08-03T00:33:02.491Z,21.14
2016-08-03T00:34:02.516Z,21.14
2016-08-03T00:35:02.557Z,21.14
2016-08-03T00:36:03.298Z,21.09
2016-08-03T00:37:02.610Z,21.03
2016-08-03T00:38:02.626Z,21.06
2016-08-03T00:39:02.650Z,21.02
2016-08-03T00:40:03.388Z,21.03
2016-08-03T00:41:02.704Z,21.05
2016-08-03T00:42:03.445Z,21.02
2016-08-03T00:43:03.469Z,21.03
2016-08-03T00:44:02.838Z,21.02
2016-08-03T00:45:02.816Z,21.06
2016-08-03T00:46:02.841Z,21.06
2016-08-03T00:47:02.874Z,21.05
2016-08-03T00:48:02.895Z,21
2016-08-03T00:49:02.925Z,20.99
2016-08-03T00:50:02.955Z,20.93
2016-08-03T00:51:02.977Z,20.93
2016-08-03T00:52:03.026Z,21
2016-08-03T00:53:03.033Z,20.96
2016-08-03T00:54:03.060Z,20.96
2016-08-03T00:55:03.090Z,20.92
2016-08-03T00:56:03.112Z,20.84
2016-08-03T00:57:03.846Z,20.88
2016-08-03T00:58:03.170Z,20.87
2016-08-03T00:59:03.192Z,20.85
2016-08-03T01:00:03.245Z,20.84
2016-08-03T01:01:04.008Z,20.84
2016-08-03T01:02:03.286Z,20.77
2016-08-03T01:03:03.308Z,20.87
2016-08-03T01:04:03.329Z,20.92
2016-08-03T01:05:03.355Z,20.9
2016-08-03T01:06:03.441Z,20.87
2016-08-03T01:07:03.411Z,20.9
2016-08-03T01:08:03.454Z,20.92
2016-08-03T01:09:03.467Z,20.99
2016-08-03T01:10:03.490Z,20.93
2016-08-03T01:11:03.514Z,21
2016-08-03T01:12:03.539Z,21.07
2016-08-03T01:13:03.570Z,21.02
2016-08-03T01:14:03.596Z,21.02
2016-08-03T01:15:03.624Z,21.02
2016-08-03T01:16:03.673Z,21.06
2016-08-03T01:17:03.684Z,21.03
2016-08-03T01:18:03.702Z,21.05
2016-08-03T01:19:03.732Z,21.02
2016-08-03T01:20:04.470Z,21.07
2016-08-03T01:21:03.781Z,21.02
2016-08-03T01:22:03.810Z,21.05
2016-08-03T01:23:03.837Z,21.07
2016-08-03T01:24:03.888Z,21.03
2016-08-03T01:25:03.901Z,21.03
2016-08-03T01:26:05.337Z,21
2016-08-03T01:27:03.948Z,21.07
2016-08-03T01:28:03.975Z,21.07
2016-08-03T01:29:04.001Z,21.02
2016-08-03T01:30:04.033Z,21.02
2016-08-03T01:31:04.053Z,21.05
2016-08-03T01:32:04.080Z,21.06
2016-08-03T01:33:04.118Z,21.03
2016-08-03T01:34:04.845Z,21.06
2016-08-03T01:35:04.165Z,21
2016-08-03T01:36:04.190Z,21
2016-08-03T01:37:04.943Z,21.03
2016-08-03T01:38:04.243Z,21.11
2016-08-03T01:39:04.271Z,21.06
2016-08-03T01:40:04.305Z,21.12
2016-08-03T01:41:04.333Z,21.03
2016-08-03T01:42:04.351Z,21.03
2016-08-03T01:43:04.382Z,21.09
2016-08-03T01:45:04.434Z,21.06
2016-08-03T01:46:04.463Z,21.03
2016-08-03T01:47:05.200Z,21.14
2016-08-03T01:48:05.224Z,21.14
2016-08-03T01:49:04.550Z,21.17
2016-08-03T01:50:04.566Z,21.12
2016-08-03T01:51:04.594Z,21.11
2016-08-03T01:52:04.626Z,21.14
2016-08-03T01:53:06.072Z,21.15
2016-08-03T01:54:04.677Z,21.11
2016-08-03T01:55:04.703Z,21.07
2016-08-03T01:56:04.731Z,21.06
2016-08-03T01:57:05.466Z,21.14
2016-08-03T01:58:04.784Z,21.14
2016-08-03T02:00:04.838Z,21.18
2016-08-03T02:01:04.928Z,21.15
2016-08-03T02:02:04.911Z,21.15
2016-08-03T02:03:04.922Z,21.03
2016-08-03T02:04:04.975Z,21.05
2016-08-03T02:05:05.684Z,21.14
2016-08-03T02:06:05.000Z,21.14
2016-08-03T02:07:05.027Z,21.12
2016-08-03T02:08:05.767Z,21.14
2016-08-03T02:09:05.083Z,21.18
2016-08-03T02:10:05.108Z,21.11
2016-08-03T02:11:05.843Z,21.15
2016-08-03T02:12:05.882Z,21.18
2016-08-03T02:13:05.206Z,21.25
2016-08-03T02:14:05.224Z,21.27
2016-08-03T02:15:05.245Z,21.29
2016-08-03T02:16:05.271Z,21.25
2016-08-03T02:17:06.008Z,21.17
2016-08-03T02:18:05.326Z,21.11
2016-08-03T02:19:05.357Z,21.03
2016-08-03T02:20:05.378Z,21.07
2016-08-03T02:21:05.423Z,21
2016-08-03T02:22:05.436Z,21.07
2016-08-03T02:23:05.461Z,21
2016-08-03T02:24:06.197Z,21.03
2016-08-03T02:25:05.516Z,21.06
2016-08-03T02:26:05.542Z,21.06
2016-08-03T02:27:05.568Z,21.03
2016-08-03T02:28:05.598Z,21.02
2016-08-03T02:29:05.635Z,21.05
2016-08-03T02:30:05.650Z,21.05
2016-08-03T02:31:05.677Z,21.03
2016-08-03T02:32:06.411Z,21.03
2016-08-03T02:33:05.733Z,21.03
2016-08-03T02:34:05.778Z,21.02
2016-08-03T02:35:06.499Z,21.03
2016-08-03T02:36:06.521Z,21
2016-08-03T02:37:05.856Z,21.06
2016-08-03T02:38:06.575Z,21.02
2016-08-03T02:39:05.894Z,21.03
2016-08-03T02:40:05.920Z,20.96
2016-08-03T02:41:05.948Z,20.99
2016-08-03T02:42:06.689Z,20.95
2016-08-03T02:43:06.002Z,20.92
2016-08-03T02:44:06.031Z,20.96
2016-08-03T02:45:06.077Z,20.92
2016-08-03T02:46:06.085Z,20.87
2016-08-03T02:47:06.107Z,20.95
2016-08-03T02:48:06.847Z,20.92
2016-08-03T02:49:06.161Z,20.93
2016-08-03T02:50:06.902Z,20.88
2016-08-03T02:51:06.216Z,20.87
2016-08-03T02:52:06.955Z,20.8
2016-08-03T02:53:06.285Z,20.88
2016-08-03T02:54:06.309Z,20.88
2016-08-03T02:55:06.324Z,20.82
2016-08-03T02:56:06.353Z,20.84
2016-08-03T02:57:07.088Z,20.78
2016-08-03T02:58:06.405Z,20.87
2016-08-03T02:59:06.432Z,20.84
2016-08-03T03:00:06.457Z,20.9
2016-08-03T03:01:07.196Z,20.8
2016-08-03T03:02:06.508Z,20.87
2016-08-03T03:03:06.538Z,20.87
2016-08-03T03:04:06.563Z,20.85
2016-08-03T03:05:06.593Z,20.84
2016-08-03T03:06:06.620Z,20.87
2016-08-03T03:07:06.648Z,20.97
2016-08-03T03:08:06.676Z,20.88
2016-08-03T03:09:06.720Z,20.93
2016-08-03T03:10:06.725Z,20.96
2016-08-03T03:11:06.752Z,20.96
2016-08-03T03:12:07.487Z,20.85
2016-08-03T03:13:06.825Z,20.87
2016-08-03T03:14:06.832Z,20.97
2016-08-03T03:15:06.858Z,20.93
2016-08-03T03:16:06.886Z,20.88
2016-08-03T03:17:06.913Z,20.82
2016-08-03T03:18:07.652Z,20.93
2016-08-03T03:19:07.674Z,20.92
2016-08-03T03:20:06.995Z,20.99
2016-08-03T03:21:07.024Z,20.9
2016-08-03T03:22:07.052Z,20.97
2016-08-03T03:23:07.074Z,20.96
2016-08-03T03:24:07.100Z,20.95
2016-08-03T03:25:07.127Z,20.96
2016-08-03T03:26:07.152Z,20.85
2016-08-03T03:27:07.903Z,20.99
2016-08-03T03:28:07.205Z,20.85
2016-08-03T03:29:07.236Z,20.9
2016-08-03T03:30:07.263Z,20.92
2016-08-03T03:31:07.290Z,20.87
2016-08-03T03:32:08.025Z,20.97
2016-08-03T03:33:08.050Z,20.88
2016-08-03T03:34:08.080Z,20.87
2016-08-03T03:35:07.400Z,20.93
2016-08-03T03:36:07.423Z,21.02
2016-08-03T03:37:07.448Z,20.96
2016-08-03T03:38:08.194Z,20.95
2016-08-03T03:39:07.505Z,20.93
2016-08-03T03:40:08.241Z,20.92
2016-08-03T03:41:07.556Z,20.97
2016-08-03T03:42:07.583Z,20.96
2016-08-03T03:43:07.612Z,21.02
2016-08-03T03:44:07.636Z,20.87
2016-08-03T03:45:07.671Z,20.96
2016-08-03T03:46:07.693Z,20.97
2016-08-03T03:47:07.716Z,21.02
2016-08-03T03:48:07.741Z,20.99
2016-08-03T03:49:07.770Z,20.9
2016-08-03T03:50:07.795Z,20.99
2016-08-03T03:51:07.827Z,20.93
2016-08-03T03:52:07.854Z,20.92
2016-08-03T03:53:07.880Z,21
2016-08-03T03:54:07.908Z,21.02
2016-08-03T03:55:07.936Z,21
2016-08-03T03:56:07.966Z,21.06
2016-08-03T03:57:07.984Z,20.99
2016-08-03T03:58:08.012Z,20.95
2016-08-03T03:59:08.749Z,21
2016-08-03T04:00:08.777Z,20.99
2016-08-03T04:01:08.852Z,20.96
2016-08-03T04:02:08.124Z,20.9
2016-08-03T04:03:08.153Z,20.93
2016-08-03T04:04:09.593Z,20.87
2016-08-03T04:05:08.206Z,20.92
2016-08-03T04:06:08.226Z,20.96
2016-08-03T04:07:08.264Z,20.88
2016-08-03T04:08:08.285Z,20.8
2016-08-03T04:09:08.317Z,20.81
2016-08-03T04:10:08.340Z,20.8
2016-08-03T04:11:08.364Z,20.84
2016-08-03T04:12:09.096Z,20.81
2016-08-03T04:13:08.412Z,20.77
2016-08-03T04:14:08.438Z,20.72
2016-08-03T04:15:08.466Z,20.8
2016-08-03T04:16:09.205Z,20.74
2016-08-03T04:17:08.523Z,20.78
2016-08-03T04:18:08.553Z,20.82
2016-08-03T04:19:08.581Z,20.69
2016-08-03T04:20:09.327Z,20.78
2016-08-03T04:21:08.628Z,20.69
2016-08-03T04:22:08.656Z,20.7
2016-08-03T04:23:08.682Z,20.74
2016-08-03T04:24:08.706Z,20.77
2016-08-03T04:25:08.734Z,20.77
2016-08-03T04:26:08.775Z,20.78
2016-08-03T04:27:08.801Z,20.72
2016-08-03T04:28:08.816Z,20.78
2016-08-03T04:29:08.847Z,20.74
2016-08-03T04:30:08.871Z,20.75
2016-08-03T04:31:09.609Z,20.74
2016-08-03T04:32:08.925Z,20.7
2016-08-03T04:33:08.956Z,20.75
2016-08-03T04:34:08.987Z,20.78
2016-08-03T04:35:08.999Z,20.74
2016-08-03T04:36:09.739Z,20.77
2016-08-03T04:37:09.057Z,20.81
2016-08-03T04:38:09.802Z,20.8
2016-08-03T04:39:09.819Z,20.81
2016-08-03T04:40:09.140Z,20.8
2016-08-03T04:41:09.165Z,20.82
2016-08-03T04:42:09.926Z,20.78
2016-08-03T04:43:09.217Z,20.87
2016-08-03T04:44:09.244Z,20.87
2016-08-03T04:45:09.274Z,20.88
2016-08-03T04:46:09.295Z,20.92
2016-08-03T04:47:09.346Z,20.95
2016-08-03T04:48:09.353Z,20.97
2016-08-03T04:49:09.394Z,20.93
2016-08-03T04:50:10.144Z,20.96
2016-08-03T04:51:09.440Z,21.02
2016-08-03T04:52:10.172Z,21.06
2016-08-03T04:53:09.490Z,21.02
2016-08-03T04:54:09.515Z,20.96
2016-08-03T04:55:09.547Z,21
2016-08-03T04:56:09.567Z,21.03
2016-08-03T04:57:09.594Z,21
2016-08-03T04:58:09.646Z,21.07
2016-08-03T04:59:09.653Z,21.03
2016-08-03T05:00:09.679Z,21.14
2016-08-03T05:01:09.701Z,21.14
2016-08-03T05:02:09.734Z,21.14
2016-08-03T05:03:09.754Z,21.15
2016-08-03T05:04:11.216Z,21.15
2016-08-03T05:05:10.520Z,21.11
2016-08-03T05:06:09.858Z,21.15
2016-08-03T05:07:09.867Z,21.06
2016-08-03T05:08:09.891Z,21
2016-08-03T05:09:09.915Z,21.02
2016-08-03T05:10:09.944Z,20.99
2016-08-03T05:11:09.969Z,21.05
2016-08-03T05:12:10.706Z,21.05
2016-08-03T05:13:10.740Z,21.06
2016-08-03T05:14:10.061Z,21.12
2016-08-03T05:15:10.787Z,21.11
2016-08-03T05:16:10.113Z,21.03
2016-08-03T05:17:10.841Z,21.02
2016-08-03T05:18:10.873Z,21.09
2016-08-03T05:19:10.183Z,21.07
2016-08-03T05:20:10.212Z,21.03
2016-08-03T05:21:10.238Z,20.99
2016-08-03T05:22:10.979Z,21.02
2016-08-03T05:23:10.304Z,21
2016-08-03T05:24:11.030Z,21.03
2016-08-03T05:25:10.352Z,21
2016-08-03T05:26:11.082Z,21
2016-08-03T05:27:10.399Z,21
2016-08-03T05:28:11.133Z,21.02
2016-08-03T05:29:10.457Z,20.99
2016-08-03T05:30:11.185Z,20.96
2016-08-03T05:31:11.217Z,20.87
2016-08-03T05:32:10.535Z,20.95
2016-08-03T05:33:10.561Z,21
2016-08-03T05:34:11.294Z,20.92
2016-08-03T05:35:10.615Z,20.93
2016-08-03T05:36:11.354Z,20.99
2016-08-03T05:37:10.670Z,20.97
2016-08-03T05:38:10.697Z,20.95
2016-08-03T05:39:10.736Z,21.03
2016-08-03T05:40:10.750Z,21.07
2016-08-03T05:41:10.786Z,21.02
2016-08-03T05:42:10.803Z,21.09
2016-08-03T05:43:11.538Z,21.18
2016-08-03T05:44:12.274Z,21.15
2016-08-03T05:45:10.901Z,21.17
2016-08-03T05:46:11.620Z,21.22
2016-08-03T05:47:11.665Z,21.27
2016-08-03T05:48:10.965Z,21.3
2016-08-03T05:49:10.992Z,21.25
2016-08-03T05:50:11.016Z,21.3
2016-08-03T05:51:11.043Z,21.32
2016-08-03T05:52:11.072Z,21.39
2016-08-03T05:53:11.814Z,21.4
2016-08-03T05:54:11.128Z,21.32
2016-08-03T05:55:11.170Z,21.37
2016-08-03T05:56:11.181Z,21.4
2016-08-03T05:57:11.203Z,21.35
2016-08-03T05:58:11.229Z,21.42
2016-08-03T05:59:11.260Z,21.45
2016-08-03T06:01:11.317Z,21.48
2016-08-03T06:02:12.054Z,21.48
2016-08-03T06:03:12.098Z,21.48
2016-08-03T06:04:11.399Z,21.5
2016-08-03T06:05:12.139Z,21.55
2016-08-03T06:06:12.158Z,21.6
2016-08-03T06:07:12.187Z,21.61
2016-08-03T06:08:11.503Z,21.62
2016-08-03T06:09:12.246Z,21.67
2016-08-03T06:10:12.269Z,21.67
2016-08-03T06:11:11.607Z,21.7
2016-08-03T06:12:11.615Z,21.69
2016-08-03T06:13:11.640Z,21.69
2016-08-03T06:14:11.665Z,21.72
2016-08-03T06:15:11.695Z,21.72
2016-08-03T06:16:11.722Z,21.66
2016-08-03T06:17:11.754Z,21.8
2016-08-03T06:18:11.777Z,21.73
2016-08-03T06:19:11.821Z,21.72
2016-08-03T06:20:11.833Z,21.79
2016-08-03T06:21:11.856Z,21.79
2016-08-03T06:22:11.885Z,21.67
2016-08-03T06:23:11.910Z,21.75
2016-08-03T06:24:11.937Z,21.73
2016-08-03T06:25:11.967Z,21.82
2016-08-03T06:26:11.990Z,21.82
2016-08-03T06:27:12.040Z,21.79
2016-08-03T06:28:12.050Z,21.73
2016-08-03T06:29:12.790Z,21.77
2016-08-03T06:30:12.101Z,21.83
2016-08-03T06:31:12.840Z,21.88
2016-08-03T06:32:12.157Z,21.82
2016-08-03T06:33:12.183Z,21.83
2016-08-03T06:34:13.000Z,21.95
2016-08-03T06:35:12.260Z,21.96
2016-08-03T06:36:12.269Z,22.1
2016-08-03T06:37:12.304Z,22.15
2016-08-03T06:38:12.325Z,22.18
2016-08-03T06:39:12.360Z,22.23
2016-08-03T06:40:12.375Z,22.29
2016-08-03T06:41:12.404Z,22.35
2016-08-03T06:42:12.435Z,22.25
2016-08-03T06:43:13.180Z,22.36
2016-08-03T06:44:12.485Z,22.35
2016-08-03T06:45:12.514Z,22.38
2016-08-03T06:46:12.546Z,22.39
2016-08-03T06:47:12.574Z,22.48
2016-08-03T06:48:13.311Z,22.55
2016-08-03T06:49:12.643Z,22.6
2016-08-03T06:50:12.725Z,22.65
2016-08-03T06:51:12.690Z,22.73
2016-08-03T06:52:13.422Z,22.73
2016-08-03T06:53:12.740Z,22.78
2016-08-03T06:54:12.768Z,22.76
2016-08-03T06:55:12.802Z,22.88
2016-08-03T06:56:13.583Z,22.84
2016-08-03T06:57:12.849Z,22.85
2016-08-03T06:58:12.892Z,22.9
2016-08-03T06:59:12.906Z,23.02
2016-08-03T07:00:12.938Z,23.02
2016-08-03T07:01:12.969Z,23.06
2016-08-03T07:02:12.995Z,23.17
2016-08-03T07:03:13.020Z,23.13
2016-08-03T07:04:13.049Z,23.18
2016-08-03T07:05:13.075Z,23.13
2016-08-03T07:06:13.110Z,23.13
2016-08-03T07:07:13.848Z,23.27
2016-08-03T07:08:13.269Z,23.27
2016-08-03T07:09:13.193Z,23.25
2016-08-03T07:10:13.215Z,23.25
2016-08-03T07:11:13.245Z,23.37
2016-08-03T07:12:13.274Z,23.36
2016-08-03T07:13:13.300Z,23.37
2016-08-03T07:14:13.328Z,23.41
2016-08-03T07:15:14.066Z,23.37
2016-08-03T07:16:13.387Z,23.39
2016-08-03T07:17:13.415Z,23.5
2016-08-03T07:18:13.444Z,23.55
2016-08-03T07:19:13.474Z,23.5
2016-08-03T07:20:13.499Z,23.61
2016-08-03T07:21:13.529Z,23.5
2016-08-03T07:22:14.275Z,23.63
2016-08-03T07:23:13.586Z,23.62
2016-08-03T07:24:15.032Z,23.63
2016-08-03T07:25:13.661Z,23.65
2016-08-03T07:26:13.668Z,23.55
2016-08-03T07:27:13.697Z,23.71
2016-08-03T07:28:13.730Z,23.71
2016-08-03T07:29:14.465Z,23.68
2016-08-03T07:30:13.785Z,23.71
2016-08-03T07:31:13.822Z,23.78
2016-08-03T07:32:13.842Z,23.84
2016-08-03T07:33:14.582Z,23.84
2016-08-03T07:34:13.908Z,23.96
2016-08-03T07:35:13.929Z,23.96
2016-08-03T07:36:13.955Z,23.93
2016-08-03T07:37:13.983Z,23.95
2016-08-03T07:38:14.010Z,23.93
2016-08-03T07:39:14.043Z,24.03
2016-08-03T07:40:14.084Z,24.05
2016-08-03T07:41:14.099Z,24.13
2016-08-03T07:42:14.126Z,24.11
2016-08-03T07:43:14.160Z,24.21
2016-08-03T07:44:14.188Z,24.32
2016-08-03T07:45:14.237Z,24.3
2016-08-03T07:46:14.251Z,24.26
2016-08-03T07:47:14.295Z,24.42
2016-08-03T07:48:14.304Z,24.42
2016-08-03T07:49:14.336Z,24.5
2016-08-03T07:50:14.363Z,24.42
2016-08-03T07:51:14.435Z,24.54
2016-08-03T07:52:14.422Z,24.53
2016-08-03T07:53:14.452Z,24.66
2016-08-03T07:54:14.480Z,24.66
2016-08-03T07:55:14.511Z,24.77
2016-08-03T07:56:14.539Z,24.73
2016-08-03T07:57:14.589Z,24.84
2016-08-03T07:58:14.601Z,24.95
2016-08-03T07:59:14.625Z,24.91
2016-08-03T08:00:14.654Z,24.86
2016-08-03T08:01:15.392Z,25.01
2016-08-03T08:02:14.712Z,25.1
2016-08-03T08:03:14.741Z,25.22
2016-08-03T08:04:15.487Z,25.16
2016-08-03T08:05:14.806Z,25.14
2016-08-03T08:06:14.828Z,25.08
2016-08-03T08:07:14.857Z,25.14
2016-08-03T08:08:16.376Z,25.22
2016-08-03T08:09:17.777Z,25.29
2016-08-03T08:10:14.948Z,25.32
2016-08-03T08:11:29.896Z,25.44
2016-08-03T08:12:15.008Z,25.4
2016-08-03T08:13:15.041Z,25.41
2016-08-03T08:14:15.776Z,25.44
2016-08-03T08:15:15.109Z,25.51
2016-08-03T08:16:15.125Z,25.62
2016-08-03T08:17:15.865Z,25.72
2016-08-03T08:18:15.186Z,25.75
2016-08-03T08:19:15.223Z,25.7
2016-08-03T08:20:15.246Z,25.8
2016-08-03T08:21:15.278Z,25.84
2016-08-03T08:22:15.308Z,25.84
2016-08-03T08:23:15.335Z,25.77
2016-08-03T08:24:15.371Z,25.72
2016-08-03T08:25:15.396Z,25.72
2016-08-03T08:26:15.428Z,25.81
2016-08-03T08:27:15.456Z,25.83
2016-08-03T08:28:15.488Z,25.9
2016-08-03T08:29:15.539Z,25.93
2016-08-03T08:30:16.672Z,25.9
2016-08-03T08:31:18.415Z,25.91
2016-08-03T08:32:18.506Z,25.85
2016-08-03T08:33:15.638Z,25.95
2016-08-03T08:34:15.667Z,26.03
2016-08-03T08:35:15.698Z,26.06
2016-08-03T08:36:15.741Z,25.99
2016-08-03T08:37:15.760Z,26.07
2016-08-03T08:38:15.787Z,26.18
2016-08-03T08:39:15.820Z,26.1
2016-08-03T08:40:15.849Z,26.22
2016-08-03T08:41:15.876Z,26.29
2016-08-03T08:42:15.912Z,26.26
2016-08-03T08:43:15.936Z,26.25
2016-08-03T08:44:16.685Z,26.28
2016-08-03T08:45:16.029Z,26.25
2016-08-03T08:46:16.042Z,26.31
2016-08-03T08:47:16.772Z,26.41
2016-08-03T08:48:16.087Z,26.37
2016-08-03T08:49:16.119Z,26.52
2016-08-03T08:50:16.151Z,26.53
2016-08-03T08:51:16.184Z,26.58
2016-08-03T08:52:16.235Z,26.62
2016-08-03T08:53:16.954Z,26.52
2016-08-03T08:54:17.694Z,26.62
2016-08-03T08:55:16.304Z,26.59
2016-08-03T08:56:16.335Z,26.63
2016-08-03T08:57:16.368Z,26.73
2016-08-03T08:58:16.395Z,26.83
2016-08-03T08:59:16.436Z,26.7
2016-08-03T09:00:16.457Z,26.74
2016-08-03T09:01:17.265Z,26.7
2016-08-03T09:02:16.517Z,26.59
2016-08-03T09:03:16.569Z,26.63
2016-08-03T09:04:16.579Z,26.77
2016-08-03T09:05:16.610Z,26.81
2016-08-03T09:06:17.351Z,26.85
2016-08-03T09:07:16.673Z,26.95
2016-08-03T09:08:16.701Z,27.05
2016-08-03T09:09:16.735Z,27.05
2016-08-03T09:10:16.774Z,27.1
2016-08-03T09:11:16.799Z,27.12
2016-08-03T09:12:16.837Z,27.2
2016-08-03T09:13:16.857Z,27.22
2016-08-03T09:14:16.899Z,27.18
2016-08-03T09:15:16.919Z,27.29
2016-08-03T09:16:16.949Z,27.25
2016-08-03T09:17:16.980Z,27.29
2016-08-03T09:18:17.018Z,27.32
2016-08-03T09:19:17.062Z,27.36
2016-08-03T09:20:17.076Z,27.39
2016-08-03T09:21:17.107Z,27.47
2016-08-03T09:22:17.138Z,27.42
2016-08-03T09:23:17.179Z,27.52
2016-08-03T09:24:17.199Z,27.74
2016-08-03T09:25:17.232Z,27.71
2016-08-03T09:26:17.268Z,27.78
2016-08-03T09:27:17.298Z,27.87
2016-08-03T09:28:18.039Z,27.85
2016-08-03T09:29:17.359Z,27.82
2016-08-03T09:30:17.386Z,27.78
2016-08-03T09:31:17.417Z,27.86
2016-08-03T09:32:17.450Z,27.9
2016-08-03T09:33:18.197Z,28.01
2016-08-03T09:34:17.520Z,27.95
2016-08-03T09:35:17.545Z,28.02
2016-08-03T09:36:18.287Z,28.01
2016-08-03T09:37:17.619Z,28.14
2016-08-03T09:38:17.644Z,28.11
2016-08-03T09:39:17.675Z,28.17
2016-08-03T09:40:17.704Z,28.11
2016-08-03T09:41:18.445Z,28.1
2016-08-03T09:42:17.796Z,28.07
2016-08-03T09:43:17.798Z,28.12
2016-08-03T09:44:17.830Z,28.19
2016-08-03T09:45:17.864Z,28.2
2016-08-03T09:46:17.893Z,28.19
2016-08-03T09:47:17.922Z,28.19
2016-08-03T09:48:17.960Z,28.11
2016-08-03T09:49:17.984Z,28.12
2016-08-03T09:50:18.016Z,28.07
2016-08-03T09:51:18.068Z,28.14
2016-08-03T09:52:18.081Z,28.1
2016-08-03T09:53:18.115Z,28.19
2016-08-03T09:54:18.148Z,28.11
2016-08-03T09:55:18.893Z,28.11
2016-08-03T09:56:18.925Z,28.1
2016-08-03T09:57:18.241Z,28.1
2016-08-03T09:58:18.276Z,28.2
2016-08-03T09:59:18.304Z,28.15
2016-08-03T10:00:19.046Z,28.19
2016-08-03T10:01:18.393Z,28.2
2016-08-03T10:02:18.403Z,28.22
2016-08-03T10:03:18.437Z,28.17
2016-08-03T10:04:18.466Z,28.37
2016-08-03T10:05:18.498Z,28.49
2016-08-03T10:06:18.533Z,28.47
2016-08-03T10:07:20.000Z,28.48
2016-08-03T10:08:19.322Z,28.48
2016-08-03T10:09:18.624Z,28.56
2016-08-03T10:10:18.655Z,28.56
2016-08-03T10:11:18.682Z,28.62
2016-08-03T10:12:18.716Z,28.66
2016-08-03T10:13:18.756Z,28.75
2016-08-03T10:14:19.515Z,28.81
2016-08-03T10:15:18.813Z,28.85
2016-08-03T10:17:18.885Z,28.78
2016-08-03T10:18:18.911Z,28.89
2016-08-03T10:19:18.944Z,28.89
2016-08-03T10:20:18.973Z,28.93
2016-08-03T10:21:19.006Z,28.88
2016-08-03T10:22:19.038Z,28.85
2016-08-03T10:23:19.096Z,28.78
2016-08-03T10:24:19.106Z,28.82
2016-08-03T10:25:19.146Z,28.84
2016-08-03T10:26:19.163Z,28.81
2016-08-03T10:27:19.199Z,28.85
2016-08-03T10:28:19.242Z,28.91
2016-08-03T10:29:19.977Z,28.91
2016-08-03T10:30:19.295Z,28.79
2016-08-03T10:32:20.067Z,28.75
2016-08-03T10:33:19.401Z,28.69
2016-08-03T10:34:20.134Z,28.82
2016-08-03T10:35:19.455Z,28.76
2016-08-03T10:36:19.488Z,28.85
2016-08-03T10:37:20.229Z,28.86
2016-08-03T10:38:19.554Z,29.05
2016-08-03T10:39:19.588Z,29.04
2016-08-03T10:40:19.627Z,29.19
2016-08-03T10:41:19.648Z,29.2
2016-08-03T10:42:20.391Z,29.14
2016-08-03T10:43:19.721Z,29.14
2016-08-03T10:44:19.745Z,29.12
2016-08-03T10:45:19.776Z,29.17
2016-08-03T10:47:19.851Z,29.22
2016-08-03T10:48:20.603Z,29.08
2016-08-03T10:49:19.905Z,29.22
2016-08-03T10:50:19.939Z,29.2
2016-08-03T10:51:19.971Z,29.32
2016-08-03T10:52:20.001Z,29.27
2016-08-03T10:53:20.743Z,29.35
2016-08-03T10:54:20.068Z,29.42
2016-08-03T10:55:20.101Z,29.45
2016-08-03T10:56:20.133Z,29.53
2016-08-03T10:57:20.169Z,29.56
2016-08-03T10:58:20.205Z,29.65
2016-08-03T10:59:20.230Z,29.68
2016-08-03T11:00:20.271Z,29.81
2016-08-03T11:02:20.342Z,29.76
2016-08-03T11:03:21.072Z,29.75
2016-08-03T11:04:20.395Z,29.81
2016-08-03T11:05:20.424Z,29.84
2016-08-03T11:06:20.480Z,29.88
2016-08-03T11:07:20.493Z,29.95
2016-08-03T11:08:21.240Z,29.97
2016-08-03T11:09:21.268Z,29.94
2016-08-03T11:10:20.589Z,30.03
2016-08-03T11:11:20.623Z,29.91
2016-08-03T11:12:20.657Z,29.82
2016-08-03T11:13:20.689Z,29.79
2016-08-03T11:14:20.721Z,29.94
2016-08-03T11:15:20.750Z,29.94
2016-08-03T11:17:20.820Z,29.87
2016-08-03T11:18:20.851Z,29.88
2016-08-03T11:19:20.885Z,30
2016-08-03T11:20:20.920Z,30.15
2016-08-03T11:21:20.955Z,30.09
2016-08-03T11:22:21.005Z,30.03
2016-08-03T11:23:21.018Z,30
2016-08-03T11:24:21.078Z,30.08
2016-08-03T11:25:21.082Z,30.09
2016-08-03T11:26:21.119Z,30.12
2016-08-03T11:27:21.857Z,30.09
2016-08-03T11:28:21.313Z,30.24
2016-08-03T11:29:21.923Z,30.24
2016-08-03T11:30:21.956Z,30.27
2016-08-03T11:32:21.314Z,30.28
2016-08-03T11:33:22.057Z,30.25
2016-08-03T11:34:21.383Z,30.31
2016-08-03T11:35:22.124Z,30.16
2016-08-03T11:36:21.447Z,30.09
2016-08-03T11:37:21.486Z,30.12
2016-08-03T11:38:21.518Z,30.06
2016-08-03T11:39:21.546Z,30.12
2016-08-03T11:40:22.569Z,29.98
2016-08-03T11:41:21.611Z,30
2016-08-03T11:42:21.647Z,30.08
2016-08-03T11:43:21.679Z,30.09
2016-08-03T11:44:22.421Z,30.1
2016-08-03T11:45:22.460Z,30.16
2016-08-03T11:47:21.815Z,30.27
2016-08-03T11:48:21.841Z,30.27
2016-08-03T11:49:21.881Z,30.28
2016-08-03T11:50:21.909Z,30.21
2016-08-03T11:51:21.944Z,30.23
2016-08-03T11:52:21.977Z,30.39
2016-08-03T11:53:22.012Z,30.46
2016-08-03T11:54:22.047Z,30.4
2016-08-03T11:55:22.077Z,30.37
2016-08-03T11:56:22.115Z,30.4
2016-08-03T11:57:22.154Z,30.43
2016-08-03T11:58:22.191Z,30.31
2016-08-03T11:59:22.208Z,30.37
2016-08-03T12:00:22.951Z,30.37
2016-08-03T12:02:22.305Z,30.51
2016-08-03T12:03:23.053Z,30.46
2016-08-03T12:04:23.104Z,30.47
2016-08-03T12:05:22.411Z,30.51
2016-08-03T12:06:22.466Z,30.51
2016-08-03T12:07:22.474Z,30.51
2016-08-03T12:08:22.506Z,30.57
2016-08-03T12:09:22.555Z,30.63
2016-08-03T12:10:23.285Z,30.7
2016-08-03T12:11:22.609Z,30.77
2016-08-03T12:12:22.660Z,30.75
2016-08-03T12:13:22.673Z,30.73
2016-08-03T12:14:22.708Z,30.83
2016-08-03T12:15:22.742Z,30.77
2016-08-03T12:17:22.808Z,30.78
2016-08-03T12:18:22.839Z,30.77
2016-08-03T12:19:22.873Z,30.69
2016-08-03T12:20:22.908Z,30.75
2016-08-03T12:21:23.142Z,30.77
2016-08-03T12:22:22.985Z,30.81
2016-08-03T12:23:23.021Z,30.75
2016-08-03T12:24:23.043Z,30.8
2016-08-03T12:25:23.077Z,30.77
2016-08-03T12:26:23.112Z,30.85
2016-08-03T12:27:23.147Z,30.77
2016-08-03T12:28:23.179Z,31.03
2016-08-03T12:29:23.210Z,30.87
2016-08-03T12:30:23.261Z,30.77
2016-08-03T12:32:23.312Z,30.73
2016-08-03T12:33:23.345Z,30.69
2016-08-03T12:34:23.383Z,30.66
2016-08-03T12:35:23.421Z,30.65
2016-08-03T12:36:23.449Z,30.63
2016-08-03T12:37:23.484Z,30.75
2016-08-03T12:38:23.515Z,30.78
2016-08-03T12:39:23.569Z,30.81
2016-08-03T12:40:23.581Z,30.87
2016-08-03T12:41:23.616Z,30.91
2016-08-03T12:42:23.650Z,30.85
2016-08-03T12:43:23.683Z,30.92
2016-08-03T12:44:24.425Z,30.9
2016-08-03T12:45:24.457Z,30.9
2016-08-03T12:46:23.781Z,30.91
2016-08-03T12:47:23.814Z,30.91
2016-08-03T12:48:23.856Z,30.87
2016-08-03T12:49:23.890Z,30.72
2016-08-03T12:50:23.919Z,30.68
2016-08-03T12:51:23.950Z,30.66
2016-08-03T12:52:23.987Z,30.69
2016-08-03T12:53:24.028Z,30.62
2016-08-03T12:54:24.055Z,30.62
2016-08-03T12:55:24.795Z,30.7
2016-08-03T12:56:24.127Z,30.72
2016-08-03T12:57:24.864Z,30.84
2016-08-03T12:58:24.184Z,30.83
2016-08-03T12:59:24.217Z,30.92
2016-08-03T13:00:25.047Z,31.02
2016-08-03T13:01:24.285Z,31.02
2016-08-03T13:02:24.318Z,31
2016-08-03T13:03:24.359Z,30.88
2016-08-03T13:04:24.383Z,30.77
2016-08-03T13:05:24.442Z,30.83
2016-08-03T13:06:24.454Z,30.94
2016-08-03T13:07:24.485Z,30.96
2016-08-03T13:08:24.518Z,31.09
2016-08-03T13:09:25.263Z,31.15
2016-08-03T13:10:24.589Z,31.15